Time;durP1;ratioP1;P1;durP2;ratioP2;P2;SDS_P1;SDS_P2;PMS_P1;PMS_P2;Temp;Humidity;BMP_temperature;BMP_pressure;BME280_temperature;BME280_humidity;BME280_pressure;Samples;Min_cycle;Max_cycle;Signal;HPM_P1;HPM_P2
2020/12/19 00:00:35;;;;;;;14.13;10.03;;;;;;;17.84;40.49;101616.06;31098735;28;20046;-66
2020/12/19 00:15:36;;;;;;;15.35;10.73;;;;;;;17.73;41.27;101614.13;31142053;28;20304;-65
2020/12/19 00:30:37;;;;;;;14.27;10.40;;;;;;;17.63;41.81;101598.09;31221953;28;20040;-65
2020/12/19 00:45:38;;;;;;;15.38;10.75;;;;;;;17.53;42.16;101597.03;31236404;28;20057;-65
2020/12/19 01:00:39;;;;;;;17.30;11.07;;;;;;;17.42;42.42;101583.75;31218791;28;20048;-65
2020/12/19 01:15:40;;;;;;;13.43;10.07;;;;;;;17.37;42.69;101581.44;31205882;28;20048;-65
2020/12/19 01:30:41;;;;;;;16.20;10.60;;;;;;;17.29;42.66;101575.81;31127421;28;20053;-65
2020/12/19 01:45:42;;;;;;;14.23;10.57;;;;;;;17.24;42.97;101565.59;31112961;28;20080;-65
2020/12/19 02:00:43;;;;;;;13.95;9.80;;;;;;;17.20;43.02;101556.22;31120742;28;20446;-65
2020/12/19 02:15:45;;;;;;;13.40;9.55;;;;;;;17.16;43.25;101541.63;31159515;28;20553;-65
2020/12/19 02:30:45;;;;;;;14.80;9.45;;;;;;;17.11;43.19;101539.31;31250967;28;20509;-65
2020/12/19 02:45:46;;;;;;;12.25;9.40;;;;;;;17.06;43.25;101515.09;31249972;28;20033;-64
2020/12/19 03:00:47;;;;;;;13.45;9.68;;;;;;;17.02;43.05;101507.50;31248985;28;20033;-64
2020/12/19 03:15:48;;;;;;;13.60;9.18;;;;;;;16.96;43.18;101485.13;31218235;28;20495;-65
2020/12/19 03:30:49;;;;;;;12.50;8.90;;;;;;;16.90;43.20;101477.66;31124233;28;20040;-65
2020/12/19 03:45:50;;;;;;;11.95;8.52;;;;;;;16.86;43.10;101473.53;31119124;28;20390;-65
2020/12/19 04:00:51;;;;;;;11.60;7.88;;;;;;;16.79;43.26;101470.47;31118097;28;20044;-65
2020/12/19 04:15:53;;;;;;;11.50;7.65;;;;;;;16.75;43.20;101459.28;31143405;28;20056;-65
2020/12/19 04:30:54;;;;;;;12.15;8.70;;;;;;;16.70;43.15;101455.28;31239408;28;20049;-65
2020/12/19 04:45:55;;;;;;;10.48;7.97;;;;;;;16.64;43.13;101456.50;31236221;28;20391;-65
2020/12/19 05:00:56;;;;;;;10.77;7.40;;;;;;;16.60;43.19;101456.81;31237476;28;20045;-65
2020/12/19 05:15:57;;;;;;;10.63;7.70;;;;;;;16.57;43.21;101473.59;31207805;28;20060;-65
2020/12/19 05:30:58;;;;;;;10.13;7.32;;;;;;;16.54;43.27;101469.38;31116574;28;20252;-66
2020/12/19 05:45:59;;;;;;;9.85;7.28;;;;;;;16.50;43.06;101460.00;31151434;28;20084;-65
2020/12/19 06:01:00;;;;;;;9.63;7.07;;;;;;;16.45;43.11;101461.25;31133686;28;20040;-66
2020/12/19 06:16:09;;;;;;;10.53;7.20;;;;;;;16.42;42.97;101469.28;31164135;28;20302;-66
2020/12/19 06:31:17;;;;;;;9.52;6.63;;;;;;;16.37;42.87;101468.75;31244866;28;20292;-66
2020/12/19 06:46:29;;;;;;;9.90;6.72;;;;;;;16.34;43.03;101454.03;31267923;28;20025;-66
2020/12/19 07:01:30;;;;;;;9.48;6.82;;;;;;;16.31;42.85;101455.09;31233385;28;20383;-66
2020/12/19 07:16:53;;;;;;;7.97;5.93;;;;;;;16.29;42.78;101456.13;31211429;28;20487;-66
2020/12/19 07:31:55;;;;;;;9.18;6.47;;;;;;;16.29;42.75;101446.47;31123782;28;20030;-65
2020/12/19 07:46:58;;;;;;;8.77;6.30;;;;;;;16.29;42.66;101443.00;31106761;28;20577;-66
2020/12/19 08:02:03;;;;;;;7.82;5.43;;;;;;;16.27;42.35;101422.09;31106374;28;20026;-66
2020/12/19 08:17:08;;;;;;;8.43;6.03;;;;;;;16.29;42.44;101427.25;31158849;28;20115;-65
2020/12/19 08:32:09;;;;;;;9.05;6.03;;;;;;;16.34;42.14;101481.13;31241315;28;20036;-66
2020/12/19 08:47:10;;;;;;;9.70;6.55;;;;;;;16.44;42.12;101457.75;31213746;28;20030;-66
2020/12/19 09:02:11;;;;;;;11.65;6.90;;;;;;;16.94;41.29;101469.47;31108785;28;20510;-65
2020/12/19 09:17:27;;;;;;;8.45;5.90;;;;;;;17.65;39.88;101470.03;31104987;28;20451;-65
2020/12/19 09:32:28;;;;;;;7.85;5.80;;;;;;;18.20;39.25;101458.34;31103818;28;20411;-64
2020/12/19 09:47:29;;;;;;;12.90;9.70;;;;;;;17.52;32.43;101433.25;31128479;28;20030;-64
2020/12/19 10:02:30;;;;;;;12.05;8.73;;;;;;;17.69;36.14;101442.59;31114030;28;20296;-64
2020/12/19 10:17:31;;;;;;;9.20;7.20;;;;;;;19.56;34.59;101430.88;31110582;28;20503;-64
2020/12/19 10:32:32;;;;;;;9.47;7.07;;;;;;;20.22;34.46;101430.16;31115331;28;20300;-65
2020/12/19 10:47:33;;;;;;;7.77;6.37;;;;;;;20.53;34.67;101422.44;31131220;28;20649;-65
2020/12/19 11:02:34;;;;;;;9.97;7.27;;;;;;;20.55;35.08;101407.28;31132532;28;20293;-65
2020/12/19 11:17:35;;;;;;;9.40;7.23;;;;;;;20.48;35.79;101412.25;31108967;28;20701;-65
2020/12/19 11:32:36;;;;;;;11.90;7.30;;;;;;;20.51;37.16;101385.56;31110319;28;20300;-66
2020/12/19 11:47:37;;;;;;;14.23;7.80;;;;;;;20.51;37.91;101390.84;31113719;28;20293;-65
2020/12/19 12:02:38;;;;;;;18.33;9.13;;;;;;;20.42;38.30;101350.19;31091631;28;20064;-65
2020/12/19 12:17:39;;;;;;;11.10;7.50;;;;;;;20.01;35.80;101358.81;31107435;28;20665;-63
2020/12/19 12:32:40;;;;;;;9.53;6.20;;;;;;;19.69;35.70;101345.53;31102570;28;20306;-64
2020/12/19 12:47:41;;;;;;;8.82;5.65;;;;;;;19.37;34.87;101346.22;31103608;28;20662;-64
2020/12/19 13:02:42;;;;;;;8.53;6.00;;;;;;;19.00;35.15;101334.06;31102410;28;20039;-65
2020/12/19 13:17:43;;;;;;;7.73;5.60;;;;;;;18.55;35.24;101347.03;31114861;28;20293;-65
2020/12/19 13:32:44;;;;;;;7.13;5.50;;;;;;;17.89;36.16;101345.72;31110187;28;20927;-64
2020/12/19 13:47:45;;;;;;;8.00;5.40;;;;;;;17.40;36.44;101346.50;31108642;28;20396;-65
2020/12/19 14:02:46;;;;;;;8.30;4.93;;;;;;;17.16;38.09;101339.38;30989452;28;20066;-65
2020/12/19 14:17:47;;;;;;;8.33;5.10;;;;;;;17.17;39.72;101348.91;30993932;28;20296;-66
2020/12/19 14:32:48;;;;;;;8.10;5.00;;;;;;;17.13;40.97;101365.81;31010866;28;20311;-67
2020/12/19 14:47:50;;;;;;;8.37;5.53;;;;;;;17.48;40.96;101366.06;30986855;28;20293;-65
2020/12/19 15:02:51;;;;;;;8.90;5.75;;;;;;;17.84;40.31;101356.56;31003606;28;20321;-64
2020/12/19 15:17:52;;;;;;;7.67;5.93;;;;;;;18.07;40.35;101360.19;31017793;28;20077;-66
2020/12/19 15:32:53;;;;;;;9.90;6.97;;;;;;;18.17;40.31;101355.13;30976955;28;20320;-67
2020/12/19 15:47:53;;;;;;;11.23;6.57;;;;;;;18.15;40.48;101357.03;30984264;28;20296;-67
2020/12/19 16:02:55;;;;;;;12.13;8.93;;;;;;;17.99;41.28;101352.84;31000705;28;20637;-66
2020/12/19 16:17:57;;;;;;;11.67;7.73;;;;;;;17.83;41.53;101348.81;30989026;28;20293;-64
2020/12/19 16:33:01;;;;;;;13.55;9.25;;;;;;;17.66;41.90;101381.50;30997874;28;20297;-64
2020/12/19 16:48:02;;;;;;;13.00;9.93;;;;;;;17.59;41.88;101381.06;30993270;28;20033;-64
2020/12/19 17:03:03;;;;;;;12.97;10.20;;;;;;;17.73;41.87;101372.22;30993127;28;20026;-65
2020/12/19 17:18:05;;;;;;;14.27;10.05;;;;;;;17.79;41.63;101383.16;31039752;28;20288;-66
2020/12/19 17:33:06;;;;;;;14.15;10.55;;;;;;;15.90;40.85;101395.56;31066273;28;20046;-64
2020/12/19 17:48:07;;;;;;;16.08;12.55;;;;;;;16.69;41.42;101391.41;31014735;28;20435;-65
2020/12/19 18:03:08;;;;;;;17.15;12.85;;;;;;;17.22;40.67;101406.41;30981809;28;20488;-64
2020/12/19 18:18:09;;;;;;;16.73;12.45;;;;;;;17.51;40.68;101410.53;30996178;28;20046;-65
2020/12/19 18:33:10;;;;;;;16.20;12.80;;;;;;;17.75;40.71;101412.41;31004858;28;20042;-64
2020/12/19 18:48:11;;;;;;;15.93;13.18;;;;;;;18.19;39.94;101408.50;30988213;28;20722;-66
2020/12/19 19:03:12;;;;;;;18.17;13.98;;;;;;;18.52;39.22;101420.16;30980770;28;20326;-66
2020/12/19 19:18:13;;;;;;;18.35;14.45;;;;;;;18.62;39.65;101419.38;31002654;28;20050;-64
2020/12/19 19:33:14;;;;;;;15.80;13.20;;;;;;;18.81;40.63;101416.28;30986469;28;20041;-66
2020/12/19 19:48:15;;;;;;;17.10;14.10;;;;;;;18.87;41.87;101424.66;30981576;28;20643;-66
2020/12/19 20:03:16;;;;;;;19.00;14.40;;;;;;;18.75;41.38;101413.22;30991261;28;20296;-65
2020/12/19 20:18:17;;;;;;;17.97;13.73;;;;;;;18.74;41.99;101422.91;30968972;28;20320;-66
2020/12/19 20:33:18;;;;;;;18.33;14.10;;;;;;;18.97;41.25;101413.34;30980961;28;20360;-65
2020/12/19 20:48:19;;;;;;;17.10;14.70;;;;;;;19.07;41.29;101434.56;30957814;28;20034;-65
2020/12/19 21:03:20;;;;;;;18.63;13.30;;;;;;;19.05;41.35;101434.66;30959497;28;20301;-64
2020/12/19 21:18:21;;;;;;;16.73;13.40;;;;;;;18.99;41.73;101442.22;30977567;28;20293;-66
2020/12/19 21:33:22;;;;;;;15.03;13.07;;;;;;;17.65;38.43;101432.41;30964035;28;20802;-65
2020/12/19 21:48:23;;;;;;;15.80;12.30;;;;;;;18.51;39.48;101426.38;30980934;28;20293;-65
2020/12/19 22:03:24;;;;;;;14.63;12.53;;;;;;;18.99;39.21;101429.88;30967762;28;20435;-65
2020/12/19 22:18:25;;;;;;;15.10;12.27;;;;;;;19.09;39.24;101424.75;30992426;28;20305;-65
2020/12/19 22:33:26;;;;;;;15.17;11.70;;;;;;;19.03;39.99;101431.34;30950805;28;20301;-66
2020/12/19 22:48:27;;;;;;;15.40;12.63;;;;;;;18.73;39.11;101439.66;31002781;28;20309;-64
2020/12/19 23:03:28;;;;;;;16.40;13.10;;;;;;;18.60;39.56;101454.69;31014390;28;20293;-64
2020/12/19 23:18:29;;;;;;;15.68;13.27;;;;;;;18.44;40.21;101460.22;31031095;28;20492;-67
2020/12/19 23:33:30;;;;;;;16.90;13.33;;;;;;;18.30;41.12;101484.88;31008584;28;20042;-66
2020/12/19 23:48:31;;;;;;;17.20;13.83;;;;;;;18.19;41.39;101472.47;30988828;28;20723;-65
